createdAt,value
2022-08-17T00:00:34.524Z,30.73
2022-08-17T00:03:10.808Z,38.57
2022-08-17T00:05:43.641Z,35.53
2022-08-17T00:08:12.155Z,35.53
2022-08-17T00:10:40.912Z,38.30
2022-08-17T00:13:15.907Z,39.10
2022-08-17T00:15:45.858Z,38.27
2022-08-17T00:19:01.738Z,37.47
2022-08-17T00:21:04.444Z,41.37
2022-08-17T00:23:39.839Z,36.73
2022-08-17T00:26:43.593Z,39.43
2022-08-17T00:29:08.966Z,37.47
2022-08-17T00:31:38.861Z,43.90
2022-08-17T00:34:08.805Z,45.07
2022-08-17T00:36:37.163Z,34.80
2022-08-17T00:39:06.134Z,39.53
2022-08-17T00:41:35.840Z,39.67
2022-08-17T00:44:06.571Z,42.07
2022-08-17T00:46:37.104Z,39.30
2022-08-17T00:49:08.350Z,38.67
2022-08-17T00:51:43.307Z,44.30
2022-08-17T00:54:16.267Z,46.23
2022-08-17T00:56:48.473Z,44.23
2022-08-17T00:59:20.390Z,43.50
2022-08-17T01:01:50.526Z,40.63
2022-08-17T01:04:23.493Z,39.03
2022-08-17T01:06:53.014Z,40.83
2022-08-17T01:09:21.938Z,40.53
2022-08-17T01:11:52.336Z,41.53
2022-08-17T01:14:21.541Z,46.30
2022-08-17T01:16:51.292Z,36.33
2022-08-17T01:19:24.767Z,36.80
2022-08-17T01:22:01.085Z,39.17
2022-08-17T01:24:31.349Z,51.23
2022-08-17T01:27:02.318Z,40.90
2022-08-17T01:29:31.837Z,41.43
2022-08-17T01:32:03.818Z,41.67
2022-08-17T01:34:42.626Z,44.27
2022-08-17T01:37:16.753Z,38.90
2022-08-17T01:39:50.629Z,38.27
2022-08-17T01:42:23.907Z,42.43
2022-08-17T01:44:57.834Z,41.13
2022-08-17T01:47:25.933Z,37.63
2022-08-17T01:49:54.129Z,41.80
2022-08-17T01:52:23.872Z,37.30
2022-08-17T01:54:54.455Z,40.30
2022-08-17T01:57:22.615Z,38.53
2022-08-17T01:59:50.810Z,41.10
2022-08-17T02:02:30.672Z,41.43
2022-08-17T02:05:00.242Z,36.53
2022-08-17T02:07:28.953Z,38.37
2022-08-17T02:09:58.352Z,34.77
2022-08-17T02:12:38.575Z,36.87
2022-08-17T02:15:15.169Z,35.10
2022-08-17T02:17:44.560Z,39.97
2022-08-17T02:20:12.651Z,43.10
2022-08-17T02:22:43.587Z,43.10
2022-08-17T02:25:16.233Z,41.43
2022-08-17T02:27:44.511Z,43.33
2022-08-17T02:30:59.307Z,42.90
2022-08-17T02:33:04.334Z,42.53
2022-08-17T02:35:35.173Z,41.60
2022-08-17T02:38:03.460Z,43.63
2022-08-17T02:40:36.056Z,45.07
2022-08-17T02:43:05.542Z,45.47
2022-08-17T02:45:34.307Z,47.30
2022-08-17T02:48:02.821Z,46.63
2022-08-17T02:50:30.889Z,46.93
2022-08-17T02:53:02.214Z,48.97
2022-08-17T02:55:34.285Z,49.93
2022-08-17T02:58:03.814Z,50.37
2022-08-17T03:00:34.284Z,49.37
2022-08-17T03:03:05.131Z,48.97
2022-08-17T03:05:35.660Z,47.87
2022-08-17T03:08:06.599Z,48.00
2022-08-17T03:10:36.330Z,47.17
2022-08-17T03:13:04.957Z,51.03
2022-08-17T03:15:35.036Z,56.60
2022-08-17T03:18:04.069Z,50.93
2022-08-17T03:20:33.646Z,50.97
2022-08-17T03:23:03.150Z,50.23
2022-08-17T03:25:34.496Z,48.37
2022-08-17T03:28:04.713Z,51.37
2022-08-17T03:30:37.890Z,51.63
2022-08-17T03:33:09.952Z,51.60
2022-08-17T03:35:40.378Z,50.33
2022-08-17T03:38:10.297Z,49.67
2022-08-17T03:40:57.192Z,49.43
2022-08-17T03:43:30.744Z,55.23
2022-08-17T03:46:28.837Z,49.30
2022-08-17T03:49:28.797Z,53.23
2022-08-17T03:52:15.663Z,49.93
2022-08-17T03:55:02.261Z,49.10
2022-08-17T03:57:31.509Z,54.07
2022-08-17T04:00:00.958Z,52.13
2022-08-17T04:02:32.184Z,54.30
2022-08-17T04:05:00.880Z,48.07
2022-08-17T04:07:31.218Z,53.57
2022-08-17T04:09:59.691Z,53.83
2022-08-17T04:12:30.791Z,52.73
2022-08-17T04:15:00.997Z,55.00
2022-08-17T04:17:30.554Z,48.70
2022-08-17T04:19:58.819Z,54.20
2022-08-17T04:22:32.258Z,53.23
2022-08-17T04:25:04.994Z,51.73
2022-08-17T04:27:33.301Z,54.63
2022-08-17T04:30:03.037Z,47.07
2022-08-17T04:33:05.087Z,45.67
2022-08-17T04:35:21.437Z,49.57
2022-08-17T04:37:49.728Z,45.83
2022-08-17T04:40:36.550Z,45.77
2022-08-17T04:43:08.562Z,46.20
2022-08-17T04:45:51.283Z,43.27
2022-08-17T04:48:29.703Z,44.97
2022-08-17T04:51:07.326Z,42.87
2022-08-17T04:53:35.613Z,41.47
2022-08-17T04:56:03.858Z,47.03
2022-08-17T04:58:32.132Z,42.33
2022-08-17T05:01:01.900Z,41.87
2022-08-17T05:03:30.526Z,41.90
2022-08-17T05:05:58.691Z,44.50
2022-08-17T05:08:26.718Z,42.77
2022-08-17T05:10:55.332Z,38.80
2022-08-17T05:13:26.113Z,44.47
2022-08-17T05:15:56.973Z,39.37
2022-08-17T05:18:26.666Z,37.87
2022-08-17T05:20:55.025Z,37.80
2022-08-17T05:23:27.455Z,42.87
2022-08-17T05:26:15.230Z,43.27
2022-08-17T05:28:55.045Z,36.73
2022-08-17T05:31:25.845Z,35.13
2022-08-17T05:33:55.420Z,39.70
2022-08-17T05:36:43.287Z,36.90
2022-08-17T05:39:15.902Z,38.60
2022-08-17T05:41:46.424Z,33.20
2022-08-17T05:44:14.585Z,34.07
2022-08-17T05:46:46.668Z,34.73
2022-08-17T05:49:19.566Z,33.07
2022-08-17T05:52:18.887Z,34.93
2022-08-17T05:54:58.457Z,31.20
2022-08-17T05:57:53.928Z,30.60
2022-08-17T06:00:26.477Z,30.97
2022-08-17T06:03:15.331Z,31.27
2022-08-17T06:06:07.125Z,34.33
2022-08-17T06:08:42.372Z,32.87
2022-08-17T06:11:20.553Z,27.83
2022-08-17T06:14:09.472Z,31.77
2022-08-17T06:16:41.139Z,29.63
2022-08-17T06:19:15.893Z,27.77
2022-08-17T06:21:49.069Z,30.80
2022-08-17T06:24:28.841Z,26.87
2022-08-17T06:27:07.286Z,31.57
2022-08-17T06:29:47.685Z,29.03
2022-08-17T06:32:17.169Z,28.27
2022-08-17T06:34:47.185Z,28.50
2022-08-17T06:37:26.581Z,26.67
2022-08-17T06:40:01.573Z,28.63
2022-08-17T06:43:05.353Z,26.83
2022-08-17T06:45:33.097Z,26.50
2022-08-17T06:48:08.204Z,27.13
2022-08-17T06:50:40.719Z,30.40
2022-08-17T06:53:20.596Z,27.63
2022-08-17T06:55:56.284Z,27.83
2022-08-17T06:58:29.809Z,29.53
2022-08-17T07:01:01.032Z,26.90
2022-08-17T07:03:37.973Z,32.03
2022-08-17T07:06:12.518Z,26.77
2022-08-17T07:09:05.941Z,24.43
2022-08-17T07:11:52.592Z,25.33
2022-08-17T07:14:36.780Z,23.57
